Time;durP1;ratioP1;P1;durP2;ratioP2;P2;SDS_P1;SDS_P2;PMS_P1;PMS_P2;Temp;Humidity;BMP_temperature;BMP_pressure;BME280_temperature;BME280_humidity;BME280_pressure;Samples;Min_cycle;Max_cycle;Signal;HPM_P1;HPM_P2
2021/07/26 00:01:48;;;;;;;10.80;3.75;;;;;;;;;;5060457;28;20434;-67
2021/07/26 00:04:13;;;;;;;7.50;3.70;;;;;;;;;;5063025;28;20430;-67
2021/07/26 00:06:39;;;;;;;6.47;3.77;;;;;;;;;;5056612;28;20580;-67
2021/07/26 00:09:04;;;;;;;5.30;3.33;;;;;;;;;;5059494;28;20283;-67
2021/07/26 00:11:29;;;;;;;10.02;4.22;;;;;;;;;;5069635;28;20031;-67
2021/07/26 00:13:54;;;;;;;9.95;3.67;;;;;;;;;;5055072;28;20029;-67
2021/07/26 00:16:20;;;;;;;5.70;3.70;;;;;;;;;;5041036;28;20028;-68
2021/07/26 00:18:45;;;;;;;6.50;4.10;;;;;;;;;;5052538;28;20314;-68
2021/07/26 00:21:10;;;;;;;8.03;3.63;;;;;;;;;;5057524;28;20267;-67
2021/07/26 00:23:35;;;;;;;8.15;3.63;;;;;;;;;;5070345;28;20266;-67
2021/07/26 00:28:26;;;;;;;5.95;3.10;;;;;;;;;;5113858;22;20048;-67
2021/07/26 00:30:52;;;;;;;6.83;3.80;;;;;;;;;;5091826;28;20407;-67
2021/07/26 00:33:39;;;;;;;5.07;3.20;;;;;;;;;;5092347;28;20262;-67
2021/07/26 00:36:04;;;;;;;8.70;3.15;;;;;;;;;;5091710;28;20768;-67
2021/07/26 00:38:30;;;;;;;3.63;2.00;;;;;;;;;;5090548;28;20029;-64
2021/07/26 00:40:55;;;;;;;6.43;3.30;;;;;;;;;;5087857;28;20277;-64
2021/07/26 00:43:21;;;;;;;6.30;3.47;;;;;;;;;;5087099;28;20825;-64
2021/07/26 00:45:50;;;;;;;8.57;3.57;;;;;;;;;;5089525;28;20042;-64
2021/07/26 00:48:16;;;;;;;9.35;3.60;;;;;;;;;;5087852;28;20670;-64
2021/07/26 00:50:41;;;;;;;7.10;3.47;;;;;;;;;;5077836;28;20082;-65
2021/07/26 00:53:06;;;;;;;6.23;3.13;;;;;;;;;;5099430;28;20268;-64
2021/07/26 00:55:31;;;;;;;6.43;2.83;;;;;;;;;;5080412;28;20821;-64
2021/07/26 00:57:57;;;;;;;6.88;3.30;;;;;;;;;;5074202;28;20027;-65
2021/07/26 01:00:22;;;;;;;7.63;4.05;;;;;;;;;;5076101;28;20051;-64
2021/07/26 01:02:48;;;;;;;11.70;3.77;;;;;;;;;;5079488;28;20358;-64
2021/07/26 01:05:13;;;;;;;7.90;4.10;;;;;;;;;;5086068;28;20281;-64
2021/07/26 01:07:38;;;;;;;6.60;3.10;;;;;;;;;;5087647;28;20024;-64
2021/07/26 01:10:04;;;;;;;6.37;3.50;;;;;;;;;;5080993;28;20308;-64
2021/07/26 01:12:29;;;;;;;16.42;4.13;;;;;;;;;;5076539;28;20275;-64
2021/07/26 01:14:54;;;;;;;7.15;3.63;;;;;;;;;;5080888;28;20028;-64
2021/07/26 01:17:49;;;;;;;7.15;3.50;;;;;;;;;;5073781;28;20013;-65
2021/07/26 01:20:14;;;;;;;8.02;4.15;;;;;;;;;;5051822;28;20033;-64
2021/07/26 01:22:39;;;;;;;7.70;4.68;;;;;;;;;;5086211;28;20027;-64
2021/07/26 01:25:06;;;;;;;6.77;3.83;;;;;;;;;;5090778;28;20043;-64
2021/07/26 01:27:31;;;;;;;9.30;3.72;;;;;;;;;;5074237;28;20689;-65
2021/07/26 01:29:57;;;;;;;11.87;4.20;;;;;;;;;;5078036;28;20032;-64
2021/07/26 01:32:22;;;;;;;12.13;3.77;;;;;;;;;;5086290;28;20020;-64
2021/07/26 01:34:47;;;;;;;8.30;3.03;;;;;;;;;;5076740;28;20272;-65
2021/07/26 01:37:12;;;;;;;4.75;2.90;;;;;;;;;;5085912;28;20348;-65
2021/07/26 01:39:37;;;;;;;7.10;3.17;;;;;;;;;;5088090;28;20044;-64
2021/07/26 01:42:05;;;;;;;6.70;3.50;;;;;;;;;;5079881;28;20263;-64
2021/07/26 01:44:30;;;;;;;7.13;2.78;;;;;;;;;;5079226;28;20627;-64
2021/07/26 01:47:03;;;;;;;5.67;3.00;;;;;;;;;;5080633;28;20028;-64
2021/07/26 01:49:28;;;;;;;10.35;3.53;;;;;;;;;;5074789;28;20377;-64
2021/07/26 01:51:53;;;;;;;9.07;3.42;;;;;;;;;;5084193;28;20119;-64
2021/07/26 01:54:19;;;;;;;5.43;3.13;;;;;;;;;;5054189;28;20013;-65
2021/07/26 01:56:44;;;;;;;6.18;3.20;;;;;;;;;;5078542;28;20026;-64
2021/07/26 01:59:10;;;;;;;7.35;2.92;;;;;;;;;;5071394;28;20029;-64
2021/07/26 02:01:35;;;;;;;7.03;3.00;;;;;;;;;;5085156;28;20016;-65
2021/07/26 02:04:00;;;;;;;7.67;3.00;;;;;;;;;;5084334;28;20055;-64
2021/07/26 02:06:26;;;;;;;6.38;3.15;;;;;;;;;;5080490;28;20024;-64
2021/07/26 02:08:52;;;;;;;5.88;2.80;;;;;;;;;;5078239;28;20392;-64
2021/07/26 02:11:21;;;;;;;5.60;2.90;;;;;;;;;;5073407;28;20017;-64
2021/07/26 02:13:46;;;;;;;7.05;3.25;;;;;;;;;;5081057;28;20109;-64
2021/07/26 02:16:12;;;;;;;6.87;3.30;;;;;;;;;;5084169;28;20058;-65
2021/07/26 02:18:37;;;;;;;6.22;3.38;;;;;;;;;;5078583;28;20376;-65
2021/07/26 02:21:02;;;;;;;5.60;3.65;;;;;;;;;;5081347;28;20028;-64
2021/07/26 02:23:27;;;;;;;9.10;3.77;;;;;;;;;;5087431;28;20066;-64
2021/07/26 02:25:53;;;;;;;6.50;3.40;;;;;;;;;;5074597;28;20799;-64
2021/07/26 02:28:18;;;;;;;5.83;3.57;;;;;;;;;;5077466;28;20262;-65
2021/07/26 02:30:43;;;;;;;8.27;3.10;;;;;;;;;;5086281;28;20274;-64
2021/07/26 02:33:08;;;;;;;8.63;3.67;;;;;;;;;;5079392;28;20847;-64
2021/07/26 02:35:33;;;;;;;16.35;3.60;;;;;;;;;;5085545;28;20026;-64
2021/07/26 02:37:58;;;;;;;4.32;3.17;;;;;;;;;;5073282;28;20017;-65
2021/07/26 02:40:25;;;;;;;6.10;3.20;;;;;;;;;;5078702;28;20031;-64
2021/07/26 02:42:50;;;;;;;8.18;3.63;;;;;;;;;;5077752;28;20150;-64
2021/07/26 02:45:16;;;;;;;7.45;3.63;;;;;;;;;;5070658;28;20104;-64
2021/07/26 02:47:41;;;;;;;10.38;3.97;;;;;;;;;;5083106;28;20387;-64
2021/07/26 02:50:06;;;;;;;4.93;3.00;;;;;;;;;;5073851;28;20385;-64
2021/07/26 02:52:33;;;;;;;5.22;3.30;;;;;;;;;;5075068;28;20271;-64
2021/07/26 02:54:58;;;;;;;9.57;3.58;;;;;;;;;;5073574;28;20079;-64
2021/07/26 02:57:24;;;;;;;8.75;3.47;;;;;;;;;;5075518;28;20464;-64
2021/07/26 02:59:49;;;;;;;4.90;3.27;;;;;;;;;;5070917;28;20473;-64
2021/07/26 03:02:14;;;;;;;5.63;3.23;;;;;;;;;;5088739;28;20369;-64
2021/07/26 03:04:39;;;;;;;5.53;3.13;;;;;;;;;;5079713;28;20781;-65
2021/07/26 03:07:04;;;;;;;6.88;3.00;;;;;;;;;;5073454;28;20266;-64
2021/07/26 03:09:30;;;;;;;4.57;2.77;;;;;;;;;;5078441;28;20066;-64
2021/07/26 03:11:55;;;;;;;9.55;3.53;;;;;;;;;;5082148;28;20297;-64
2021/07/26 03:14:20;;;;;;;9.37;5.07;;;;;;;;;;5079609;28;20027;-64
2021/07/26 03:16:45;;;;;;;9.43;4.07;;;;;;;;;;5088866;28;20488;-64
2021/07/26 03:19:11;;;;;;;9.63;3.50;;;;;;;;;;5083453;28;20297;-64
2021/07/26 03:21:37;;;;;;;4.70;3.00;;;;;;;;;;5080692;28;20263;-64
2021/07/26 03:24:02;;;;;;;6.97;3.80;;;;;;;;;;5089594;28;20465;-65
2021/07/26 03:26:27;;;;;;;8.55;4.18;;;;;;;;;;5078764;28;20277;-64
2021/07/26 03:28:52;;;;;;;9.07;3.80;;;;;;;;;;5088456;28;20024;-64
2021/07/26 03:31:18;;;;;;;6.70;3.25;;;;;;;;;;5091846;28;20277;-64
2021/07/26 03:33:44;;;;;;;6.22;3.33;;;;;;;;;;5091176;28;20020;-64
2021/07/26 03:36:11;;;;;;;7.30;3.20;;;;;;;;;;5076032;28;20420;-65
2021/07/26 03:38:36;;;;;;;4.10;2.90;;;;;;;;;;5079814;28;20456;-64
2021/07/26 03:41:01;;;;;;;8.30;3.45;;;;;;;;;;5089809;28;20032;-64
2021/07/26 03:43:27;;;;;;;8.20;3.58;;;;;;;;;;5085134;28;20480;-65
2021/07/26 03:45:52;;;;;;;6.95;3.60;;;;;;;;;;5086419;28;20023;-64
2021/07/26 03:48:17;;;;;;;7.10;3.40;;;;;;;;;;5079252;28;20024;-65
2021/07/26 03:50:43;;;;;;;6.87;3.40;;;;;;;;;;5084703;28;20278;-64
2021/07/26 03:53:08;;;;;;;5.35;3.15;;;;;;;;;;5075833;28;20270;-64
2021/07/26 03:55:34;;;;;;;4.65;3.38;;;;;;;;;;5085251;28;20023;-64
2021/07/26 03:57:59;;;;;;;9.85;3.55;;;;;;;;;;5090767;28;20039;-65
2021/07/26 04:00:25;;;;;;;10.70;3.50;;;;;;;;;;5079132;28;20020;-64
2021/07/26 04:05:35;;;;;;;5.40;3.15;;;;;;;;;;5076513;28;20036;-64
2021/07/26 04:08:05;;;;;;;5.93;3.17;;;;;;;;;;5079012;28;20381;-63
2021/07/26 04:10:30;;;;;;;4.22;2.92;;;;;;;;;;5084413;28;20021;-63
2021/07/26 04:12:55;;;;;;;5.82;3.55;;;;;;;;;;5080004;28;20553;-65
2021/07/26 04:15:20;;;;;;;7.95;3.38;;;;;;;;;;5078214;28;20016;-64
2021/07/26 04:17:46;;;;;;;5.15;3.42;;;;;;;;;;5072522;28;20008;-67
2021/07/26 04:20:11;;;;;;;13.23;3.77;;;;;;;;;;5087512;28;20024;-64
2021/07/26 04:22:36;;;;;;;9.65;3.80;;;;;;;;;;5085342;28;20269;-64
2021/07/26 04:25:02;;;;;;;5.70;3.57;;;;;;;;;;5075756;28;20032;-64
2021/07/26 04:27:27;;;;;;;8.10;3.58;;;;;;;;;;5078481;28;20615;-63
2021/07/26 04:29:53;;;;;;;7.20;3.33;;;;;;;;;;5080568;28;20031;-64
2021/07/26 04:32:18;;;;;;;5.72;3.90;;;;;;;;;;5089928;28;20267;-65
2021/07/26 04:34:43;;;;;;;5.27;3.20;;;;;;;;;;5078413;28;20019;-63
2021/07/26 04:37:09;;;;;;;7.10;3.33;;;;;;;;;;5084183;28;20324;-64
2021/07/26 04:39:34;;;;;;;5.70;3.17;;;;;;;;;;5073090;28;20277;-64
2021/07/26 04:41:59;;;;;;;9.30;3.50;;;;;;;;;;5077248;28;20393;-65
2021/07/26 04:44:24;;;;;;;5.72;3.75;;;;;;;;;;5088521;28;20272;-64
2021/07/26 04:46:49;;;;;;;7.17;3.47;;;;;;;;;;5089207;28;20518;-64
2021/07/26 04:49:15;;;;;;;6.27;3.20;;;;;;;;;;5078145;28;20377;-64
2021/07/26 04:51:40;;;;;;;6.30;3.53;;;;;;;;;;5076507;28;20344;-64
2021/07/26 04:54:05;;;;;;;10.27;3.20;;;;;;;;;;5087834;28;20040;-65
2021/07/26 04:56:30;;;;;;;7.70;3.38;;;;;;;;;;5087473;28;20262;-64
2021/07/26 04:58:55;;;;;;;4.35;2.85;;;;;;;;;;5087883;28;20016;-64
2021/07/26 05:01:20;;;;;;;10.30;3.55;;;;;;;;;;5087648;28;20107;-64
2021/07/26 05:03:46;;;;;;;5.17;3.30;;;;;;;;;;5085290;28;20065;-64
2021/07/26 05:06:11;;;;;;;4.97;3.20;;;;;;;;;;5072627;28;20048;-64
2021/07/26 05:08:36;;;;;;;4.77;3.33;;;;;;;;;;5076529;28;20025;-64
2021/07/26 05:11:01;;;;;;;5.23;3.30;;;;;;;;;;5074026;28;20752;-66
2021/07/26 05:13:26;;;;;;;4.97;3.00;;;;;;;;;;5079024;28;20262;-67
2021/07/26 05:15:52;;;;;;;7.82;3.50;;;;;;;;;;5084612;28;20278;-68
2021/07/26 05:18:17;;;;;;;8.23;3.83;;;;;;;;;;5082928;28;20031;-66
2021/07/26 05:20:42;;;;;;;5.47;2.90;;;;;;;;;;5087425;28;20097;-66
2021/07/26 05:23:08;;;;;;;6.67;2.90;;;;;;;;;;5073903;28;20281;-66
2021/07/26 05:25:33;;;;;;;5.43;3.72;;;;;;;;;;5068636;28;20290;-64
2021/07/26 05:27:59;;;;;;;7.30;3.27;;;;;;;;;;5070745;28;20516;-64
2021/07/26 05:30:24;;;;;;;6.33;2.80;;;;;;;;;;5072370;28;20029;-66
2021/07/26 05:32:49;;;;;;;8.70;2.97;;;;;;;;;;5068547;28;20024;-65
2021/07/26 05:35:14;;;;;;;4.55;3.08;;;;;;;;;;5068575;28;20061;-65
2021/07/26 05:37:39;;;;;;;8.27;3.43;;;;;;;;;;5084929;28;20069;-67
2021/07/26 05:40:05;;;;;;;7.63;3.20;;;;;;;;;;5086232;28;20266;-64
2021/07/26 05:42:31;;;;;;;4.13;2.58;;;;;;;;;;5078721;28;20024;-66
2021/07/26 05:44:56;;;;;;;6.40;3.50;;;;;;;;;;5080874;28;20031;-63
2021/07/26 05:47:22;;;;;;;9.50;3.45;;;;;;;;;;5080520;28;20791;-63
2021/07/26 05:49:47;;;;;;;4.03;2.70;;;;;;;;;;5081618;28;20067;-65
2021/07/26 05:52:12;;;;;;;6.67;3.27;;;;;;;;;;5074591;28;20262;-64
2021/07/26 05:54:37;;;;;;;4.30;2.43;;;;;;;;;;5073204;28;20827;-65
2021/07/26 05:57:09;;;;;;;4.95;2.97;;;;;;;;;;5082500;28;20104;-63
2021/07/26 05:59:34;;;;;;;4.00;2.10;;;;;;;;;;5088952;28;20031;-64
2021/07/26 06:01:59;;;;;;;6.50;3.57;;;;;;;;;;5076315;28;20024;-64
2021/07/26 06:04:24;;;;;;;7.73;3.27;;;;;;;;;;5079016;28;20614;-65
2021/07/26 06:06:50;;;;;;;8.48;3.67;;;;;;;;;;5072275;28;20279;-65
2021/07/26 06:09:16;;;;;;;11.88;3.58;;;;;;;;;;5080917;28;20029;-65
2021/07/26 06:11:42;;;;;;;7.20;2.95;;;;;;;;;;5080724;28;20032;-64
2021/07/26 06:14:08;;;;;;;8.55;3.15;;;;;;;;;;5082449;28;20051;-65
2021/07/26 06:16:33;;;;;;;5.50;2.60;;;;;;;;;;5084313;28;20392;-64
2021/07/26 06:19:00;;;;;;;4.82;2.58;;;;;;;;;;5086153;28;20054;-66
2021/07/26 06:21:25;;;;;;;4.90;2.72;;;;;;;;;;5082565;28;20476;-66
2021/07/26 06:23:50;;;;;;;9.55;2.63;;;;;;;;;;5077746;28;20048;-67
2021/07/26 06:26:15;;;;;;;5.80;2.43;;;;;;;;;;5084138;28;20140;-65
2021/07/26 06:28:40;;;;;;;6.03;2.93;;;;;;;;;;5086213;28;20270;-67
2021/07/26 06:31:06;;;;;;;6.90;3.00;;;;;;;;;;5087162;28;20576;-64
2021/07/26 06:33:32;;;;;;;4.97;2.72;;;;;;;;;;5082120;28;20008;-64
2021/07/26 06:35:57;;;;;;;2.97;1.92;;;;;;;;;;5082245;28;20103;-64
2021/07/26 06:38:22;;;;;;;5.55;2.33;;;;;;;;;;5088259;28;20020;-65
2021/07/26 06:40:48;;;;;;;7.88;2.40;;;;;;;;;;5077375;28;20032;-64
2021/07/26 06:43:13;;;;;;;7.38;2.88;;;;;;;;;;5074640;28;20061;-67
2021/07/26 06:45:38;;;;;;;8.38;2.85;;;;;;;;;;5083197;28;20035;-65
2021/07/26 06:48:03;;;;;;;4.20;2.80;;;;;;;;;;5077118;28;20524;-65
2021/07/26 06:50:28;;;;;;;3.60;2.40;;;;;;;;;;5083591;28;20012;-64
2021/07/26 06:52:54;;;;;;;6.13;1.70;;;;;;;;;;5074953;28;20392;-65
2021/07/26 06:55:19;;;;;;;12.05;3.03;;;;;;;;;;5077347;28;20353;-64
2021/07/26 06:57:44;;;;;;;5.57;2.67;;;;;;;;;;5077585;28;20111;-67
2021/07/26 07:00:10;;;;;;;8.03;2.87;;;;;;;;;;5079934;28;20059;-64
2021/07/26 07:02:35;;;;;;;3.75;2.17;;;;;;;;;;5091481;28;20278;-65
2021/07/26 07:05:01;;;;;;;8.45;2.83;;;;;;;;;;5079858;28;20484;-65
2021/07/26 07:07:26;;;;;;;8.52;2.75;;;;;;;;;;5076023;28;20047;-65
2021/07/26 07:09:55;;;;;;;5.07;2.90;;;;;;;;;;5085167;28;20024;-66
2021/07/26 07:12:20;;;;;;;7.72;2.75;;;;;;;;;;5056650;28;20021;-65
2021/07/26 07:14:46;;;;;;;9.20;2.80;;;;;;;;;;5076713;28;20099;-66
2021/07/26 07:17:11;;;;;;;8.40;2.28;;;;;;;;;;5082765;28;20024;-64
2021/07/26 07:19:43;;;;;;;6.53;2.38;;;;;;;;;;5080880;28;20028;-65
2021/07/26 07:22:08;;;;;;;4.95;2.90;;;;;;;;;;5075117;28;20527;-66
2021/07/26 07:24:33;;;;;;;6.00;2.80;;;;;;;;;;5074765;28;20029;-64
2021/07/26 07:26:59;;;;;;;8.52;3.85;;;;;;;;;;5074713;28;20035;-64
2021/07/26 07:29:24;;;;;;;7.63;3.67;;;;;;;;;;5084626;28;20032;-65
2021/07/26 07:31:50;;;;;;;7.67;3.07;;;;;;;;;;5081238;28;20269;-64
2021/07/26 07:34:15;;;;;;;6.93;3.13;;;;;;;;;;5082156;28;20469;-66
2021/07/26 07:36:42;;;;;;;4.93;2.67;;;;;;;;;;5078117;28;20484;-66
2021/07/26 07:39:07;;;;;;;6.40;2.88;;;;;;;;;;5078183;28;20489;-67
2021/07/26 07:41:34;;;;;;;7.20;2.37;;;;;;;;;;5078799;28;20035;-64
2021/07/26 07:43:59;;;;;;;4.60;3.00;;;;;;;;;;5084116;28;20757;-66
2021/07/26 07:46:24;;;;;;;6.55;3.10;;;;;;;;;;5068676;28;20046;-65
2021/07/26 07:48:49;;;;;;;4.90;2.53;;;;;;;;;;5107588;28;20032;-65
2021/07/26 07:51:15;;;;;;;5.47;2.72;;;;;;;;;;5084240;28;20350;-65
2021/07/26 07:53:40;;;;;;;10.65;3.15;;;;;;;;;;5072961;28;20020;-67
2021/07/26 07:56:05;;;;;;;4.95;2.55;;;;;;;;;;5080796;28;20051;-64
2021/07/26 07:58:33;;;;;;;5.47;2.75;;;;;;;;;;5080211;28;20024;-65
2021/07/26 08:00:58;;;;;;;4.07;2.58;;;;;;;;;;5075410;28;20056;-65
2021/07/26 08:03:25;;;;;;;8.90;3.65;;;;;;;;;;5073234;28;20052;-65
2021/07/26 08:05:50;;;;;;;6.10;2.60;;;;;;;;;;5089031;28;20035;-67
2021/07/26 08:08:16;;;;;;;6.20;3.00;;;;;;;;;;5076230;28;20033;-65
2021/07/26 08:10:41;;;;;;;6.20;3.13;;;;;;;;;;5087312;28;20274;-65
2021/07/26 08:13:06;;;;;;;5.93;3.07;;;;;;;;;;5089149;28;20016;-67
2021/07/26 08:15:31;;;;;;;4.85;2.38;;;;;;;;;;5084324;28;20262;-65
2021/07/26 08:17:56;;;;;;;7.18;3.38;;;;;;;;;;5085984;28;20132;-65
2021/07/26 08:20:22;;;;;;;9.80;4.80;;;;;;;;;;5077214;28;20391;-64
2021/07/26 08:22:47;;;;;;;6.53;3.07;;;;;;;;;;5076790;28;20031;-65
2021/07/26 08:25:12;;;;;;;7.65;3.17;;;;;;;;;;5084217;28;20267;-64
2021/07/26 08:27:47;;;;;;;5.43;3.10;;;;;;;;;;5074949;28;20546;-64
2021/07/26 08:30:13;;;;;;;8.15;2.90;;;;;;;;;;5091199;28;20085;-68
2021/07/26 08:32:38;;;;;;;3.60;2.63;;;;;;;;;;5076356;28;20016;-64
2021/07/26 08:35:03;;;;;;;6.97;3.30;;;;;;;;;;5087717;28;20052;-65
2021/07/26 08:37:29;;;;;;;6.82;2.85;;;;;;;;;;5082695;28;20050;-66
2021/07/26 08:39:55;;;;;;;6.35;3.15;;;;;;;;;;5080391;28;20131;-67
2021/07/26 08:42:20;;;;;;;6.50;3.37;;;;;;;;;;5076351;28;20669;-65
2021/07/26 08:44:45;;;;;;;4.50;2.73;;;;;;;;;;5089243;28;20024;-66
2021/07/26 08:47:10;;;;;;;6.07;2.72;;;;;;;;;;5083846;28;20637;-64
2021/07/26 08:49:37;;;;;;;6.15;3.17;;;;;;;;;;5087924;28;20036;-65
2021/07/26 08:52:02;;;;;;;3.95;2.63;;;;;;;;;;5091779;28;20020;-64
2021/07/26 08:54:31;;;;;;;5.65;2.88;;;;;;;;;;5087965;28;20042;-65
2021/07/26 08:56:57;;;;;;;7.80;2.58;;;;;;;;;;5076996;28;20047;-64
2021/07/26 08:59:23;;;;;;;8.68;3.20;;;;;;;;;;5082031;28;20050;-66
2021/07/26 09:01:51;;;;;;;4.38;2.63;;;;;;;;;;5091309;28;20031;-65
2021/07/26 09:04:16;;;;;;;8.75;3.33;;;;;;;;;;5060803;28;20032;-65
2021/07/26 09:06:43;;;;;;;7.18;2.97;;;;;;;;;;5090466;28;20111;-65
2021/07/26 09:09:08;;;;;;;6.75;3.78;;;;;;;;;;5074979;28;20028;-65
2021/07/26 09:11:44;;;;;;;5.53;2.90;;;;;;;;;;5088724;28;20518;-64
2021/07/26 09:14:09;;;;;;;5.15;3.17;;;;;;;;;;5074050;28;20481;-64
2021/07/26 09:16:34;;;;;;;3.70;2.55;;;;;;;;;;5073539;28;20024;-65
2021/07/26 09:19:04;;;;;;;10.80;3.20;;;;;;;;;;5087727;28;20055;-64
2021/07/26 09:21:47;;;;;;;5.63;3.78;;;;;;;;;;5089558;28;20255;-65
2021/07/26 09:24:12;;;;;;;7.18;3.22;;;;;;;;;;5090640;28;20095;-64
2021/07/26 09:26:37;;;;;;;5.73;2.90;;;;;;;;;;5091377;28;20106;-65
2021/07/26 09:29:22;;;;;;;8.27;3.80;;;;;;;;;;5075608;28;20050;-64
2021/07/26 09:31:58;;;;;;;4.13;2.63;;;;;;;;;;5072285;28;20103;-65
2021/07/26 09:34:23;;;;;;;6.80;2.42;;;;;;;;;;5063331;28;20028;-66
2021/07/26 09:36:49;;;;;;;5.60;2.90;;;;;;;;;;5087752;28;20077;-64
2021/07/26 09:39:22;;;;;;;7.10;3.67;;;;;;;;;;5081956;28;20428;-64
2021/07/26 09:41:48;;;;;;;6.25;3.33;;;;;;;;;;5072645;28;20050;-64
2021/07/26 09:44:13;;;;;;;5.95;3.22;;;;;;;;;;5072432;28;20025;-66
2021/07/26 09:46:39;;;;;;;13.95;4.35;;;;;;;;;;5084881;28;20103;-65
2021/07/26 09:49:11;;;;;;;5.22;3.15;;;;;;;;;;5090158;28;20070;-65
2021/07/26 09:51:37;;;;;;;7.30;2.90;;;;;;;;;;5085424;28;20024;-64
2021/07/26 09:54:02;;;;;;;7.47;3.53;;;;;;;;;;5079642;28;20020;-65
2021/07/26 09:56:28;;;;;;;4.57;2.85;;;;;;;;;;5085283;28;20035;-66
2021/07/26 09:58:54;;;;;;;7.70;2.55;;;;;;;;;;5089089;28;20484;-66
2021/07/26 10:01:19;;;;;;;8.33;2.80;;;;;;;;;;5076553;28;20070;-66
2021/07/26 10:03:45;;;;;;;5.50;2.53;;;;;;;;;;5071060;28;20305;-64
2021/07/26 10:06:13;;;;;;;4.50;2.60;;;;;;;;;;5080498;28;20012;-65
2021/07/26 10:08:39;;;;;;;6.65;2.15;;;;;;;;;;5088413;28;20016;-67
2021/07/26 10:11:04;;;;;;;3.45;1.95;;;;;;;;;;5084549;28;20032;-65
2021/07/26 10:13:29;;;;;;;6.60;2.03;;;;;;;;;;5074676;28;20020;-64
2021/07/26 10:15:54;;;;;;;2.83;1.63;;;;;;;;;;5081716;28;20017;-66
2021/07/26 10:18:20;;;;;;;2.85;1.80;;;;;;;;;;5083386;28;20019;-65
2021/07/26 10:20:56;;;;;;;2.70;1.67;;;;;;;;;;5088259;28;20105;-65
2021/07/26 10:23:28;;;;;;;4.95;2.22;;;;;;;;;;5081985;28;20032;-65
2021/07/26 10:25:59;;;;;;;3.83;2.20;;;;;;;;;;5072022;28;20110;-65
2021/07/26 10:28:30;;;;;;;3.72;1.98;;;;;;;;;;5075952;28;20036;-65
2021/07/26 10:30:56;;;;;;;8.27;2.53;;;;;;;;;;5052559;28;20028;-65
2021/07/26 10:33:22;;;;;;;2.70;2.05;;;;;;;;;;5085303;28;20020;-66
2021/07/26 10:35:56;;;;;;;7.38;2.00;;;;;;;;;;5071865;28;20024;-66
2021/07/26 10:38:47;;;;;;;3.45;2.00;;;;;;;;;;5082531;28;20020;-66
2021/07/26 10:41:32;;;;;;;3.35;1.90;;;;;;;;;;5062780;28;20026;-64
2021/07/26 10:44:00;;;;;;;2.95;1.77;;;;;;;;;;5074299;28;20463;-67
2021/07/26 10:46:25;;;;;;;6.90;2.17;;;;;;;;;;5073592;28;20053;-65
2021/07/26 10:48:51;;;;;;;9.83;3.60;;;;;;;;;;5086345;28;20020;-65
2021/07/26 10:51:36;;;;;;;5.28;2.10;;;;;;;;;;5085899;28;20020;-66
2021/07/26 10:54:01;;;;;;;3.15;1.73;;;;;;;;;;5072795;28;20039;-65
2021/07/26 10:56:27;;;;;;;3.08;1.90;;;;;;;;;;5088068;28;20400;-65
2021/07/26 10:59:02;;;;;;;4.32;1.58;;;;;;;;;;5074594;28;20062;-65
2021/07/26 11:01:27;;;;;;;5.57;2.10;;;;;;;;;;5078454;28;20016;-65
2021/07/26 11:03:53;;;;;;;19.58;4.93;;;;;;;;;;5069167;28;20059;-64
2021/07/26 11:06:33;;;;;;;3.83;2.00;;;;;;;;;;5079615;28;20103;-66
2021/07/26 11:09:17;;;;;;;5.05;2.05;;;;;;;;;;5078665;28;20491;-65
2021/07/26 11:11:42;;;;;;;5.53;2.08;;;;;;;;;;5085677;28;20337;-65
2021/07/26 11:14:09;;;;;;;3.92;1.77;;;;;;;;;;5069275;28;20024;-66
2021/07/26 11:16:49;;;;;;;2.75;1.83;;;;;;;;;;5083913;28;20025;-65
2021/07/26 11:19:34;;;;;;;2.75;1.90;;;;;;;;;;5087692;28;20032;-65
2021/07/26 11:21:59;;;;;;;3.63;1.95;;;;;;;;;;5069581;28;20111;-65
2021/07/26 11:24:43;;;;;;;3.05;1.90;;;;;;;;;;5074706;28;20121;-66
2021/07/26 11:27:09;;;;;;;2.60;1.58;;;;;;;;;;5073871;28;20454;-65
2021/07/26 11:29:36;;;;;;;3.13;1.90;;;;;;;;;;5077721;28;20048;-65
2021/07/26 11:32:01;;;;;;;8.15;1.90;;;;;;;;;;5077814;28;20115;-66
2021/07/26 11:34:28;;;;;;;5.35;1.98;;;;;;;;;;5088051;28;20031;-65
2021/07/26 11:37:07;;;;;;;4.93;2.15;;;;;;;;;;5074252;28;20500;-66
2021/07/26 11:39:50;;;;;;;3.88;2.10;;;;;;;;;;5088639;28;20016;-65
2021/07/26 11:42:20;;;;;;;2.95;2.00;;;;;;;;;;5079468;28;20395;-65
2021/07/26 11:44:47;;;;;;;2.72;1.75;;;;;;;;;;5073526;28;20542;-68
2021/07/26 11:47:13;;;;;;;7.65;1.90;;;;;;;;;;5080198;28;20040;-65
2021/07/26 11:49:48;;;;;;;5.43;1.80;;;;;;;;;;5088288;28;20024;-65
2021/07/26 11:52:14;;;;;;;4.25;2.42;;;;;;;;;;5084037;28;20016;-68
2021/07/26 11:54:39;;;;;;;6.45;2.65;;;;;;;;;;5079903;28;20555;-65
2021/07/26 11:57:05;;;;;;;6.50;2.43;;;;;;;;;;5087142;28;20035;-65
2021/07/26 11:59:31;;;;;;;4.13;1.77;;;;;;;;;;5079163;28;20029;-66
2021/07/26 12:01:57;;;;;;;5.70;1.80;;;;;;;;;;5073183;28;20036;-66
2021/07/26 12:04:29;;;;;;;1.85;1.38;;;;;;;;;;5068105;28;20078;-65
2021/07/26 12:06:59;;;;;;;3.92;1.85;;;;;;;;;;5089983;28;20480;-65
2021/07/26 12:09:24;;;;;;;3.60;1.65;;;;;;;;;;5079818;28;20066;-65
2021/07/26 12:11:50;;;;;;;3.60;1.83;;;;;;;;;;5074374;28;20068;-65
2021/07/26 12:14:25;;;;;;;3.22;2.17;;;;;;;;;;5075157;28;20097;-65
2021/07/26 12:17:04;;;;;;;2.25;1.30;;;;;;;;;;5076862;28;20051;-66
2021/07/26 12:19:30;;;;;;;2.38;1.73;;;;;;;;;;5081707;28;20027;-66
2021/07/26 12:21:55;;;;;;;3.78;2.10;;;;;;;;;;5080025;28;20496;-66
2021/07/26 12:24:39;;;;;;;6.65;1.77;;;;;;;;;;5085087;28;20058;-65
2021/07/26 12:27:04;;;;;;;3.13;1.50;;;;;;;;;;5089716;22;20035;-84
2021/07/26 12:29:30;;;;;;;4.37;1.73;;;;;;;;;;5086820;28;20383;-85
2021/07/26 12:32:02;;;;;;;4.72;1.60;;;;;;;;;;5077814;28;20705;-84
2021/07/26 12:34:28;;;;;;;1.80;1.00;;;;;;;;;;5070559;28;20017;-86
2021/07/26 12:36:57;;;;;;;3.75;1.60;;;;;;;;;;5051946;28;20476;-85
2021/07/26 12:39:34;;;;;;;2.92;1.60;;;;;;;;;;5062585;28;20013;-85
2021/07/26 12:42:18;;;;;;;4.68;1.70;;;;;;;;;;5058619;28;20029;-84
2021/07/26 12:44:43;;;;;;;3.88;1.23;;;;;;;;;;5053654;28;20020;-85
2021/07/26 12:47:23;;;;;;;7.30;2.72;;;;;;;;;;5053015;28;20033;-84
2021/07/26 12:49:48;;;;;;;2.20;1.50;;;;;;;;;;5050785;28;20111;-85
2021/07/26 12:52:15;;;;;;;5.03;2.17;;;;;;;;;;5052683;28;20104;-85
2021/07/26 12:54:43;;;;;;;5.93;2.00;;;;;;;;;;5069098;28;20349;-85
2021/07/26 12:57:09;;;;;;;9.45;2.30;;;;;;;;;;5070771;28;20017;-85
2021/07/26 12:59:34;;;;;;;4.20;1.98;;;;;;;;;;5050553;28;20027;-87
2021/07/26 13:01:59;;;;;;;5.47;2.57;;;;;;;;;;5068478;28;20580;-85
2021/07/26 13:04:24;;;;;;;5.20;2.63;;;;;;;;;;5046725;28;20421;-84
2021/07/26 13:06:50;;;;;;;8.90;2.45;;;;;;;;;;5068172;28;20271;-84
2021/07/26 13:09:15;;;;;;;4.50;1.98;;;;;;;;;;5051281;28;20035;-84
2021/07/26 13:11:40;;;;;;;2.57;1.70;;;;;;;;;;5068866;28;20046;-85
2021/07/26 13:14:05;;;;;;;4.87;2.00;;;;;;;;;;5050667;28;20024;-84
2021/07/26 13:16:30;;;;;;;2.97;1.70;;;;;;;;;;5051355;28;20021;-84
2021/07/26 13:18:56;;;;;;;3.87;1.93;;;;;;;;;;5049245;28;20279;-85
2021/07/26 13:21:21;;;;;;;4.63;1.73;;;;;;;;;;5050505;28;20270;-85
2021/07/26 13:23:48;;;;;;;6.07;1.83;;;;;;;;;;5068510;28;20266;-85
2021/07/26 13:26:13;;;;;;;4.53;1.90;;;;;;;;;;5070055;28;20758;-85
2021/07/26 13:28:38;;;;;;;5.63;1.90;;;;;;;;;;5052576;28;20032;-85
2021/07/26 13:31:04;;;;;;;5.00;2.08;;;;;;;;;;5067524;28;20106;-86
2021/07/26 13:33:29;;;;;;;3.70;1.97;;;;;;;;;;5051372;28;20687;-86
2021/07/26 13:35:54;;;;;;;4.22;1.98;;;;;;;;;;5051504;28;20323;-85
2021/07/26 13:38:19;;;;;;;4.97;2.37;;;;;;;;;;5050692;28;20020;-85
2021/07/26 13:40:44;;;;;;;6.93;2.47;;;;;;;;;;5070173;28;20358;-85
2021/07/26 13:43:10;;;;;;;2.30;1.77;;;;;;;;;;5051806;28;20255;-85
2021/07/26 13:45:35;;;;;;;6.37;2.40;;;;;;;;;;5050678;28;20028;-85
2021/07/26 13:48:02;;;;;;;4.80;2.47;;;;;;;;;;5049676;28;20028;-85
2021/07/26 13:50:27;;;;;;;7.53;2.15;;;;;;;;;;5051252;28;20119;-85
2021/07/26 13:52:52;;;;;;;7.83;2.40;;;;;;;;;;5049141;28;20527;-85
2021/07/26 13:55:18;;;;;;;7.67;2.30;;;;;;;;;;5069906;28;20276;-86
2021/07/26 13:57:43;;;;;;;3.25;2.17;;;;;;;;;;5069653;28;20270;-85
2021/07/26 14:00:08;;;;;;;10.00;2.33;;;;;;;;;;5071424;28;20019;-85
2021/07/26 14:02:34;;;;;;;8.88;2.55;;;;;;;;;;5053397;28;20339;-85
2021/07/26 14:05:00;;;;;;;3.90;2.00;;;;;;;;;;5050209;28;20032;-85
2021/07/26 14:07:25;;;;;;;2.92;1.88;;;;;;;;;;5050821;28;20067;-85
2021/07/26 14:09:50;;;;;;;6.43;2.45;;;;;;;;;;5060307;28;20052;-85
2021/07/26 14:12:16;;;;;;;6.90;2.10;;;;;;;;;;5051810;28;20031;-86
2021/07/26 14:14:41;;;;;;;3.47;2.10;;;;;;;;;;5068838;28;20012;-86
2021/07/26 14:17:08;;;;;;;4.20;2.35;;;;;;;;;;5051243;28;20020;-85
2021/07/26 14:19:33;;;;;;;3.78;1.90;;;;;;;;;;5063488;28;20031;-85
2021/07/26 14:21:59;;;;;;;5.60;2.03;;;;;;;;;;5088047;28;20024;-86
2021/07/26 14:24:24;;;;;;;4.60;2.03;;;;;;;;;;5073622;28;20468;-86
2021/07/26 14:26:50;;;;;;;17.83;2.80;;;;;;;;;;5051016;28;20025;-84
2021/07/26 14:29:15;;;;;;;5.28;2.30;;;;;;;;;;5050449;28;20396;-83
2021/07/26 14:31:40;;;;;;;3.60;2.40;;;;;;;;;;5050371;28;20128;-85
2021/07/26 14:34:06;;;;;;;5.97;2.13;;;;;;;;;;5050831;28;20332;-85
2021/07/26 14:36:31;;;;;;;9.50;3.10;;;;;;;;;;5070695;28;20776;-86
2021/07/26 14:38:56;;;;;;;4.93;2.80;;;;;;;;;;5049804;28;20024;-83
2021/07/26 14:41:24;;;;;;;5.18;2.20;;;;;;;;;;5068427;28;20020;-85
2021/07/26 14:43:49;;;;;;;8.82;2.97;;;;;;;;;;5050504;28;20021;-84
2021/07/26 14:46:15;;;;;;;4.40;2.65;;;;;;;;;;5053450;28;20024;-84